sensor_id;sensor_type;location;lat;lon;timestamp;P1;durP1;ratioP1;P2;durP2;ratioP2
15246;SDS011;7726;48.820;9.248;2022-12-18T00:00:13;38.03;;;18.60;;
15246;SDS011;7726;48.820;9.248;2022-12-18T00:02:41;41.20;;;20.53;;
15246;SDS011;7726;48.820;9.248;2022-12-18T00:05:08;47.23;;;21.50;;
15246;SDS011;7726;48.820;9.248;2022-12-18T00:07:36;43.70;;;21.00;;
15246;SDS011;7726;48.820;9.248;2022-12-18T00:10:03;39.33;;;20.77;;
15246;SDS011;7726;48.820;9.248;2022-12-18T00:12:31;47.23;;;23.20;;
15246;SDS011;7726;48.820;9.248;2022-12-18T00:14:59;40.43;;;20.73;;
15246;SDS011;7726;48.820;9.248;2022-12-18T00:17:26;44.60;;;22.80;;
15246;SDS011;7726;48.820;9.248;2022-12-18T00:19:53;49.30;;;22.77;;
15246;SDS011;7726;48.820;9.248;2022-12-18T00:22:21;43.37;;;20.90;;
15246;SDS011;7726;48.820;9.248;2022-12-18T00:24:48;45.57;;;22.07;;
15246;SDS011;7726;48.820;9.248;2022-12-18T00:27:15;43.87;;;21.77;;
15246;SDS011;7726;48.820;9.248;2022-12-18T00:29:42;45.33;;;22.03;;
15246;SDS011;7726;48.820;9.248;2022-12-18T00:32:10;42.90;;;20.83;;
15246;SDS011;7726;48.820;9.248;2022-12-18T00:34:38;36.90;;;17.67;;
15246;SDS011;7726;48.820;9.248;2022-12-18T00:37:05;43.47;;;19.73;;
15246;SDS011;7726;48.820;9.248;2022-12-18T00:39:32;43.23;;;18.93;;
15246;SDS011;7726;48.820;9.248;2022-12-18T00:41:59;36.97;;;20.20;;
15246;SDS011;7726;48.820;9.248;2022-12-18T00:44:44;41.37;;;20.43;;
15246;SDS011;7726;48.820;9.248;2022-12-18T00:47:12;41.87;;;18.87;;
15246;SDS011;7726;48.820;9.248;2022-12-18T00:49:40;41.63;;;21.37;;
15246;SDS011;7726;48.820;9.248;2022-12-18T00:52:07;45.20;;;20.13;;
15246;SDS011;7726;48.820;9.248;2022-12-18T00:54:34;37.07;;;18.73;;
15246;SDS011;7726;48.820;9.248;2022-12-18T00:57:01;46.00;;;21.37;;
15246;SDS011;7726;48.820;9.248;2022-12-18T00:59:29;40.20;;;20.03;;
15246;SDS011;7726;48.820;9.248;2022-12-18T01:01:56;44.47;;;21.03;;
15246;SDS011;7726;48.820;9.248;2022-12-18T01:04:24;43.80;;;20.90;;
15246;SDS011;7726;48.820;9.248;2022-12-18T01:06:51;43.63;;;21.53;;
15246;SDS011;7726;48.820;9.248;2022-12-18T01:09:19;38.67;;;20.30;;
15246;SDS011;7726;48.820;9.248;2022-12-18T01:11:46;41.90;;;21.73;;
15246;SDS011;7726;48.820;9.248;2022-12-18T01:14:13;46.67;;;19.57;;
15246;SDS011;7726;48.820;9.248;2022-12-18T01:16:40;44.27;;;20.90;;
15246;SDS011;7726;48.820;9.248;2022-12-18T01:19:07;41.97;;;20.00;;
15246;SDS011;7726;48.820;9.248;2022-12-18T01:21:36;36.77;;;18.47;;
15246;SDS011;7726;48.820;9.248;2022-12-18T01:24:03;45.13;;;20.87;;
15246;SDS011;7726;48.820;9.248;2022-12-18T01:26:30;47.77;;;21.43;;
15246;SDS011;7726;48.820;9.248;2022-12-18T01:28:58;47.87;;;21.07;;
15246;SDS011;7726;48.820;9.248;2022-12-18T01:31:26;51.43;;;21.57;;
15246;SDS011;7726;48.820;9.248;2022-12-18T01:33:54;44.70;;;22.07;;
15246;SDS011;7726;48.820;9.248;2022-12-18T01:36:22;48.27;;;22.10;;
15246;SDS011;7726;48.820;9.248;2022-12-18T01:38:58;41.60;;;20.83;;
15246;SDS011;7726;48.820;9.248;2022-12-18T01:41:27;45.37;;;20.17;;
15246;SDS011;7726;48.820;9.248;2022-12-18T01:47:00;50.03;;;23.33;;
15246;SDS011;7726;48.820;9.248;2022-12-18T01:49:27;41.33;;;19.30;;
15246;SDS011;7726;48.820;9.248;2022-12-18T01:51:54;35.93;;;17.83;;
15246;SDS011;7726;48.820;9.248;2022-12-18T01:54:23;42.83;;;20.10;;
15246;SDS011;7726;48.820;9.248;2022-12-18T01:56:52;39.33;;;19.83;;
15246;SDS011;7726;48.820;9.248;2022-12-18T01:59:19;44.63;;;19.90;;
15246;SDS011;7726;48.820;9.248;2022-12-18T02:01:46;50.47;;;24.30;;
15246;SDS011;7726;48.820;9.248;2022-12-18T02:04:18;40.27;;;18.70;;
15246;SDS011;7726;48.820;9.248;2022-12-18T02:06:46;45.17;;;19.43;;
15246;SDS011;7726;48.820;9.248;2022-12-18T02:09:17;40.13;;;17.93;;
15246;SDS011;7726;48.820;9.248;2022-12-18T02:11:48;37.07;;;18.77;;
15246;SDS011;7726;48.820;9.248;2022-12-18T02:14:17;46.77;;;22.07;;
15246;SDS011;7726;48.820;9.248;2022-12-18T02:16:46;40.50;;;17.50;;
15246;SDS011;7726;48.820;9.248;2022-12-18T02:19:18;39.30;;;18.50;;
15246;SDS011;7726;48.820;9.248;2022-12-18T02:21:49;42.70;;;19.53;;
15246;SDS011;7726;48.820;9.248;2022-12-18T02:24:25;41.80;;;20.07;;
15246;SDS011;7726;48.820;9.248;2022-12-18T02:26:56;42.27;;;20.47;;
15246;SDS011;7726;48.820;9.248;2022-12-18T02:29:25;42.83;;;20.27;;
15246;SDS011;7726;48.820;9.248;2022-12-18T02:31:53;36.93;;;18.53;;
15246;SDS011;7726;48.820;9.248;2022-12-18T02:34:30;44.37;;;20.17;;
15246;SDS011;7726;48.820;9.248;2022-12-18T02:36:58;42.47;;;21.03;;
15246;SDS011;7726;48.820;9.248;2022-12-18T02:39:27;43.23;;;18.97;;
15246;SDS011;7726;48.820;9.248;2022-12-18T02:41:57;43.33;;;19.37;;
15246;SDS011;7726;48.820;9.248;2022-12-18T02:44:27;44.77;;;21.57;;
15246;SDS011;7726;48.820;9.248;2022-12-18T02:46:54;43.07;;;20.77;;
15246;SDS011;7726;48.820;9.248;2022-12-18T02:49:24;49.57;;;20.77;;
15246;SDS011;7726;48.820;9.248;2022-12-18T02:51:53;40.20;;;19.23;;
15246;SDS011;7726;48.820;9.248;2022-12-18T02:54:25;40.67;;;17.73;;
15246;SDS011;7726;48.820;9.248;2022-12-18T02:56:55;34.90;;;18.33;;
15246;SDS011;7726;48.820;9.248;2022-12-18T02:59:26;33.90;;;16.97;;
15246;SDS011;7726;48.820;9.248;2022-12-18T03:01:57;40.27;;;17.97;;
15246;SDS011;7726;48.820;9.248;2022-12-18T03:04:26;38.83;;;17.80;;
15246;SDS011;7726;48.820;9.248;2022-12-18T03:06:54;36.93;;;17.23;;
15246;SDS011;7726;48.820;9.248;2022-12-18T03:09:24;34.07;;;16.20;;
15246;SDS011;7726;48.820;9.248;2022-12-18T03:11:53;32.73;;;16.63;;
15246;SDS011;7726;48.820;9.248;2022-12-18T03:14:40;31.53;;;15.90;;
15246;SDS011;7726;48.820;9.248;2022-12-18T03:17:09;33.97;;;16.63;;
15246;SDS011;7726;48.820;9.248;2022-12-18T03:19:40;31.03;;;15.37;;
15246;SDS011;7726;48.820;9.248;2022-12-18T03:22:08;31.33;;;14.63;;
15246;SDS011;7726;48.820;9.248;2022-12-18T03:24:36;33.60;;;16.80;;
15246;SDS011;7726;48.820;9.248;2022-12-18T03:27:05;27.07;;;15.17;;
15246;SDS011;7726;48.820;9.248;2022-12-18T03:29:34;32.40;;;16.30;;
15246;SDS011;7726;48.820;9.248;2022-12-18T03:32:05;31.80;;;15.37;;
15246;SDS011;7726;48.820;9.248;2022-12-18T03:34:33;34.23;;;16.07;;
15246;SDS011;7726;48.820;9.248;2022-12-18T03:37:02;27.50;;;15.57;;
15246;SDS011;7726;48.820;9.248;2022-12-18T03:39:29;30.43;;;15.20;;
15246;SDS011;7726;48.820;9.248;2022-12-18T03:41:57;33.17;;;16.77;;
15246;SDS011;7726;48.820;9.248;2022-12-18T03:44:29;32.07;;;15.80;;
15246;SDS011;7726;48.820;9.248;2022-12-18T03:46:58;28.23;;;15.43;;
15246;SDS011;7726;48.820;9.248;2022-12-18T03:49:28;28.37;;;15.30;;
15246;SDS011;7726;48.820;9.248;2022-12-18T03:52:01;29.90;;;15.03;;
15246;SDS011;7726;48.820;9.248;2022-12-18T03:54:29;31.00;;;16.30;;
15246;SDS011;7726;48.820;9.248;2022-12-18T03:56:58;28.40;;;14.07;;
15246;SDS011;7726;48.820;9.248;2022-12-18T03:59:28;29.10;;;14.83;;
15246;SDS011;7726;48.820;9.248;2022-12-18T04:01:55;30.13;;;14.70;;
15246;SDS011;7726;48.820;9.248;2022-12-18T04:04:24;27.33;;;13.60;;
15246;SDS011;7726;48.820;9.248;2022-12-18T04:06:53;31.87;;;15.63;;
15246;SDS011;7726;48.820;9.248;2022-12-18T04:09:20;25.67;;;14.60;;
15246;SDS011;7726;48.820;9.248;2022-12-18T04:11:48;33.13;;;16.70;;
15246;SDS011;7726;48.820;9.248;2022-12-18T04:14:15;29.67;;;15.73;;
15246;SDS011;7726;48.820;9.248;2022-12-18T04:16:42;32.47;;;15.97;;
15246;SDS011;7726;48.820;9.248;2022-12-18T04:19:09;30.17;;;15.07;;
15246;SDS011;7726;48.820;9.248;2022-12-18T04:21:36;35.00;;;15.20;;
15246;SDS011;7726;48.820;9.248;2022-12-18T04:24:05;23.53;;;13.43;;
15246;SDS011;7726;48.820;9.248;2022-12-18T04:26:33;29.77;;;16.13;;
15246;SDS011;7726;48.820;9.248;2022-12-18T04:29:00;25.57;;;14.03;;
15246;SDS011;7726;48.820;9.248;2022-12-18T04:31:27;28.57;;;12.93;;
15246;SDS011;7726;48.820;9.248;2022-12-18T04:33:55;23.70;;;13.10;;
15246;SDS011;7726;48.820;9.248;2022-12-18T04:36:22;26.33;;;12.93;;
15246;SDS011;7726;48.820;9.248;2022-12-18T04:38:52;26.30;;;13.30;;
15246;SDS011;7726;48.820;9.248;2022-12-18T04:41:20;33.97;;;15.13;;
15246;SDS011;7726;48.820;9.248;2022-12-18T04:43:48;30.67;;;15.23;;
15246;SDS011;7726;48.820;9.248;2022-12-18T04:46:15;37.77;;;18.17;;
15246;SDS011;7726;48.820;9.248;2022-12-18T04:48:44;35.07;;;17.63;;
15246;SDS011;7726;48.820;9.248;2022-12-18T04:51:12;31.30;;;16.70;;
15246;SDS011;7726;48.820;9.248;2022-12-18T04:53:39;30.60;;;16.93;;
15246;SDS011;7726;48.820;9.248;2022-12-18T04:56:07;33.27;;;16.23;;
15246;SDS011;7726;48.820;9.248;2022-12-18T04:58:36;29.53;;;14.90;;
15246;SDS011;7726;48.820;9.248;2022-12-18T05:01:04;28.90;;;15.60;;
15246;SDS011;7726;48.820;9.248;2022-12-18T05:03:32;29.40;;;14.50;;
15246;SDS011;7726;48.820;9.248;2022-12-18T05:05:59;27.33;;;14.10;;
15246;SDS011;7726;48.820;9.248;2022-12-18T05:08:27;24.70;;;13.63;;
15246;SDS011;7726;48.820;9.248;2022-12-18T05:10:58;31.20;;;16.10;;
15246;SDS011;7726;48.820;9.248;2022-12-18T05:13:26;32.50;;;15.80;;
15246;SDS011;7726;48.820;9.248;2022-12-18T05:15:54;24.87;;;12.70;;
15246;SDS011;7726;48.820;9.248;2022-12-18T05:18:22;28.37;;;13.97;;
15246;SDS011;7726;48.820;9.248;2022-12-18T05:20:49;32.73;;;13.90;;
15246;SDS011;7726;48.820;9.248;2022-12-18T05:23:17;29.50;;;13.57;;
15246;SDS011;7726;48.820;9.248;2022-12-18T05:25:50;29.77;;;13.23;;
15246;SDS011;7726;48.820;9.248;2022-12-18T05:28:18;26.47;;;14.13;;
15246;SDS011;7726;48.820;9.248;2022-12-18T05:30:47;29.73;;;14.23;;
15246;SDS011;7726;48.820;9.248;2022-12-18T05:33:16;29.47;;;14.50;;
15246;SDS011;7726;48.820;9.248;2022-12-18T05:35:43;33.20;;;15.17;;
15246;SDS011;7726;48.820;9.248;2022-12-18T05:38:10;32.07;;;15.47;;
15246;SDS011;7726;48.820;9.248;2022-12-18T05:40:40;33.00;;;16.47;;
15246;SDS011;7726;48.820;9.248;2022-12-18T05:43:08;29.90;;;15.73;;
15246;SDS011;7726;48.820;9.248;2022-12-18T05:45:36;34.17;;;16.17;;
15246;SDS011;7726;48.820;9.248;2022-12-18T05:48:04;37.33;;;17.13;;
15246;SDS011;7726;48.820;9.248;2022-12-18T05:50:34;37.00;;;17.00;;
15246;SDS011;7726;48.820;9.248;2022-12-18T05:53:03;31.70;;;15.47;;
15246;SDS011;7726;48.820;9.248;2022-12-18T05:55:32;34.10;;;14.97;;
15246;SDS011;7726;48.820;9.248;2022-12-18T05:57:59;31.80;;;13.70;;
15246;SDS011;7726;48.820;9.248;2022-12-18T06:00:26;31.97;;;14.87;;
15246;SDS011;7726;48.820;9.248;2022-12-18T06:02:54;29.03;;;14.83;;
15246;SDS011;7726;48.820;9.248;2022-12-18T06:05:21;34.53;;;15.70;;
15246;SDS011;7726;48.820;9.248;2022-12-18T06:07:48;28.53;;;15.03;;
15246;SDS011;7726;48.820;9.248;2022-12-18T06:10:16;30.17;;;14.93;;
15246;SDS011;7726;48.820;9.248;2022-12-18T06:12:43;32.23;;;15.73;;
15246;SDS011;7726;48.820;9.248;2022-12-18T06:15:11;30.50;;;15.50;;
15246;SDS011;7726;48.820;9.248;2022-12-18T06:17:38;31.83;;;14.97;;
15246;SDS011;7726;48.820;9.248;2022-12-18T06:20:05;26.80;;;14.83;;
15246;SDS011;7726;48.820;9.248;2022-12-18T06:22:32;29.90;;;15.13;;
15246;SDS011;7726;48.820;9.248;2022-12-18T06:24:59;31.87;;;14.50;;
15246;SDS011;7726;48.820;9.248;2022-12-18T06:27:28;25.73;;;13.37;;
15246;SDS011;7726;48.820;9.248;2022-12-18T06:29:55;30.93;;;13.57;;
15246;SDS011;7726;48.820;9.248;2022-12-18T06:32:22;28.37;;;14.33;;
15246;SDS011;7726;48.820;9.248;2022-12-18T06:34:49;26.70;;;13.83;;
15246;SDS011;7726;48.820;9.248;2022-12-18T06:37:16;29.07;;;14.30;;
15246;SDS011;7726;48.820;9.248;2022-12-18T06:39:44;30.47;;;13.43;;
15246;SDS011;7726;48.820;9.248;2022-12-18T06:42:11;33.77;;;16.07;;
15246;SDS011;7726;48.820;9.248;2022-12-18T06:44:39;30.67;;;13.83;;
15246;SDS011;7726;48.820;9.248;2022-12-18T06:47:06;30.83;;;14.40;;
15246;SDS011;7726;48.820;9.248;2022-12-18T06:49:34;29.13;;;13.63;;
15246;SDS011;7726;48.820;9.248;2022-12-18T06:52:01;32.50;;;14.30;;
15246;SDS011;7726;48.820;9.248;2022-12-18T06:54:28;28.87;;;14.17;;
15246;SDS011;7726;48.820;9.248;2022-12-18T06:56:55;28.83;;;14.17;;
15246;SDS011;7726;48.820;9.248;2022-12-18T06:59:22;26.67;;;14.20;;
15246;SDS011;7726;48.820;9.248;2022-12-18T07:01:51;28.60;;;14.37;;
15246;SDS011;7726;48.820;9.248;2022-12-18T07:04:18;28.80;;;14.40;;
15246;SDS011;7726;48.820;9.248;2022-12-18T07:06:45;30.50;;;15.83;;
15246;SDS011;7726;48.820;9.248;2022-12-18T07:09:12;30.47;;;13.67;;
15246;SDS011;7726;48.820;9.248;2022-12-18T07:11:39;24.70;;;13.07;;
15246;SDS011;7726;48.820;9.248;2022-12-18T07:14:07;28.17;;;14.03;;
15246;SDS011;7726;48.820;9.248;2022-12-18T07:16:34;31.60;;;14.27;;
15246;SDS011;7726;48.820;9.248;2022-12-18T07:19:02;27.57;;;14.83;;
15246;SDS011;7726;48.820;9.248;2022-12-18T07:21:29;26.97;;;14.37;;
15246;SDS011;7726;48.820;9.248;2022-12-18T07:23:56;29.30;;;13.87;;
15246;SDS011;7726;48.820;9.248;2022-12-18T07:26:24;27.40;;;13.57;;
15246;SDS011;7726;48.820;9.248;2022-12-18T07:28:53;30.47;;;14.70;;
15246;SDS011;7726;48.820;9.248;2022-12-18T07:31:21;26.10;;;13.57;;
15246;SDS011;7726;48.820;9.248;2022-12-18T07:33:48;28.67;;;13.80;;
15246;SDS011;7726;48.820;9.248;2022-12-18T07:36:17;28.97;;;14.30;;
15246;SDS011;7726;48.820;9.248;2022-12-18T07:38:50;30.23;;;15.03;;
15246;SDS011;7726;48.820;9.248;2022-12-18T07:41:18;28.13;;;14.30;;
15246;SDS011;7726;48.820;9.248;2022-12-18T07:43:46;29.00;;;13.13;;
15246;SDS011;7726;48.820;9.248;2022-12-18T07:46:13;26.83;;;15.23;;
15246;SDS011;7726;48.820;9.248;2022-12-18T07:48:41;35.07;;;13.50;;
15246;SDS011;7726;48.820;9.248;2022-12-18T07:51:08;27.83;;;13.70;;
15246;SDS011;7726;48.820;9.248;2022-12-18T07:53:41;22.70;;;12.33;;
15246;SDS011;7726;48.820;9.248;2022-12-18T07:56:08;30.00;;;14.43;;
15246;SDS011;7726;48.820;9.248;2022-12-18T07:58:36;28.53;;;14.03;;
15246;SDS011;7726;48.820;9.248;2022-12-18T08:01:04;33.60;;;14.90;;
15246;SDS011;7726;48.820;9.248;2022-12-18T08:03:32;28.10;;;13.33;;
15246;SDS011;7726;48.820;9.248;2022-12-18T08:05:59;28.97;;;15.03;;
15246;SDS011;7726;48.820;9.248;2022-12-18T08:08:27;31.23;;;15.17;;
15246;SDS011;7726;48.820;9.248;2022-12-18T08:10:56;25.50;;;13.70;;
15246;SDS011;7726;48.820;9.248;2022-12-18T08:13:23;26.30;;;13.77;;
15246;SDS011;7726;48.820;9.248;2022-12-18T08:15:55;33.20;;;15.93;;
15246;SDS011;7726;48.820;9.248;2022-12-18T08:18:23;29.43;;;14.60;;
15246;SDS011;7726;48.820;9.248;2022-12-18T08:20:50;28.50;;;15.40;;
15246;SDS011;7726;48.820;9.248;2022-12-18T08:23:17;33.67;;;15.20;;
15246;SDS011;7726;48.820;9.248;2022-12-18T08:25:44;34.40;;;16.20;;
15246;SDS011;7726;48.820;9.248;2022-12-18T08:28:15;34.60;;;17.33;;
15246;SDS011;7726;48.820;9.248;2022-12-18T08:30:43;34.87;;;16.27;;
15246;SDS011;7726;48.820;9.248;2022-12-18T08:33:10;31.53;;;16.67;;
15246;SDS011;7726;48.820;9.248;2022-12-18T08:35:37;31.37;;;16.63;;
15246;SDS011;7726;48.820;9.248;2022-12-18T08:38:04;33.27;;;17.93;;
15246;SDS011;7726;48.820;9.248;2022-12-18T08:40:31;36.87;;;18.67;;
15246;SDS011;7726;48.820;9.248;2022-12-18T08:42:58;36.47;;;18.23;;
15246;SDS011;7726;48.820;9.248;2022-12-18T08:45:44;41.50;;;19.03;;
15246;SDS011;7726;48.820;9.248;2022-12-18T08:48:11;40.00;;;18.43;;
15246;SDS011;7726;48.820;9.248;2022-12-18T08:50:39;38.40;;;18.23;;
15246;SDS011;7726;48.820;9.248;2022-12-18T08:53:06;31.43;;;15.87;;
15246;SDS011;7726;48.820;9.248;2022-12-18T08:55:34;38.67;;;18.23;;
15246;SDS011;7726;48.820;9.248;2022-12-18T08:58:01;38.13;;;17.53;;
15246;SDS011;7726;48.820;9.248;2022-12-18T09:00:28;32.07;;;16.80;;
15246;SDS011;7726;48.820;9.248;2022-12-18T09:02:59;32.57;;;17.47;;
15246;SDS011;7726;48.820;9.248;2022-12-18T09:05:27;34.87;;;17.83;;
15246;SDS011;7726;48.820;9.248;2022-12-18T09:07:54;34.40;;;18.60;;
15246;SDS011;7726;48.820;9.248;2022-12-18T09:10:21;33.50;;;18.83;;
15246;SDS011;7726;48.820;9.248;2022-12-18T09:12:48;38.80;;;19.03;;
15246;SDS011;7726;48.820;9.248;2022-12-18T09:15:15;29.90;;;17.20;;
15246;SDS011;7726;48.820;9.248;2022-12-18T09:17:42;36.47;;;17.90;;
15246;SDS011;7726;48.820;9.248;2022-12-18T09:20:11;33.40;;;18.27;;
15246;SDS011;7726;48.820;9.248;2022-12-18T09:22:38;35.60;;;19.23;;
15246;SDS011;7726;48.820;9.248;2022-12-18T09:25:05;35.77;;;18.20;;
15246;SDS011;7726;48.820;9.248;2022-12-18T09:27:33;35.17;;;17.13;;
15246;SDS011;7726;48.820;9.248;2022-12-18T09:30:01;36.03;;;17.80;;
15246;SDS011;7726;48.820;9.248;2022-12-18T09:32:28;32.73;;;16.83;;
15246;SDS011;7726;48.820;9.248;2022-12-18T09:34:55;34.97;;;19.53;;
15246;SDS011;7726;48.820;9.248;2022-12-18T09:37:24;33.97;;;18.97;;
15246;SDS011;7726;48.820;9.248;2022-12-18T09:39:51;36.07;;;20.03;;
15246;SDS011;7726;48.820;9.248;2022-12-18T09:42:19;37.80;;;19.40;;
15246;SDS011;7726;48.820;9.248;2022-12-18T09:44:49;38.03;;;19.20;;
15246;SDS011;7726;48.820;9.248;2022-12-18T09:47:17;38.47;;;19.53;;
15246;SDS011;7726;48.820;9.248;2022-12-18T09:49:46;38.50;;;21.00;;
15246;SDS011;7726;48.820;9.248;2022-12-18T09:52:15;34.17;;;19.30;;
15246;SDS011;7726;48.820;9.248;2022-12-18T09:54:46;37.50;;;19.77;;
15246;SDS011;7726;48.820;9.248;2022-12-18T09:57:15;34.97;;;18.90;;
15246;SDS011;7726;48.820;9.248;2022-12-18T09:59:45;36.90;;;19.03;;
15246;SDS011;7726;48.820;9.248;2022-12-18T10:02:15;39.53;;;19.93;;
15246;SDS011;7726;48.820;9.248;2022-12-18T10:04:42;32.10;;;17.93;;
15246;SDS011;7726;48.820;9.248;2022-12-18T10:07:12;37.53;;;20.07;;
15246;SDS011;7726;48.820;9.248;2022-12-18T10:09:41;36.40;;;19.63;;
15246;SDS011;7726;48.820;9.248;2022-12-18T10:12:14;36.20;;;20.60;;
15246;SDS011;7726;48.820;9.248;2022-12-18T10:14:46;34.57;;;18.97;;
15246;SDS011;7726;48.820;9.248;2022-12-18T10:17:17;39.70;;;20.50;;
15246;SDS011;7726;48.820;9.248;2022-12-18T10:19:48;34.90;;;19.50;;
15246;SDS011;7726;48.820;9.248;2022-12-18T10:22:30;33.97;;;18.90;;
15246;SDS011;7726;48.820;9.248;2022-12-18T10:25:00;37.20;;;19.40;;
15246;SDS011;7726;48.820;9.248;2022-12-18T10:27:30;35.40;;;19.47;;
15246;SDS011;7726;48.820;9.248;2022-12-18T10:29:58;32.03;;;18.77;;
15246;SDS011;7726;48.820;9.248;2022-12-18T10:32:26;34.07;;;20.37;;
15246;SDS011;7726;48.820;9.248;2022-12-18T10:34:54;36.27;;;19.97;;
15246;SDS011;7726;48.820;9.248;2022-12-18T10:37:22;35.13;;;20.40;;
15246;SDS011;7726;48.820;9.248;2022-12-18T10:40:04;35.37;;;19.57;;
15246;SDS011;7726;48.820;9.248;2022-12-18T10:42:33;37.47;;;20.57;;
15246;SDS011;7726;48.820;9.248;2022-12-18T10:45:01;37.40;;;19.47;;
15246;SDS011;7726;48.820;9.248;2022-12-18T10:47:28;34.60;;;19.20;;
15246;SDS011;7726;48.820;9.248;2022-12-18T10:49:55;36.43;;;20.13;;
15246;SDS011;7726;48.820;9.248;2022-12-18T10:52:23;37.73;;;20.10;;
15246;SDS011;7726;48.820;9.248;2022-12-18T10:54:52;36.93;;;18.73;;
15246;SDS011;7726;48.820;9.248;2022-12-18T10:57:29;34.00;;;18.60;;
15246;SDS011;7726;48.820;9.248;2022-12-18T10:59:58;33.03;;;18.30;;
15246;SDS011;7726;48.820;9.248;2022-12-18T11:02:26;29.50;;;17.50;;
15246;SDS011;7726;48.820;9.248;2022-12-18T11:04:57;30.60;;;18.37;;
15246;SDS011;7726;48.820;9.248;2022-12-18T11:07:24;34.67;;;18.57;;
15246;SDS011;7726;48.820;9.248;2022-12-18T11:10:15;29.10;;;17.23;;
15246;SDS011;7726;48.820;9.248;2022-12-18T11:12:43;32.20;;;18.20;;
15246;SDS011;7726;48.820;9.248;2022-12-18T11:15:15;35.67;;;18.53;;
15246;SDS011;7726;48.820;9.248;2022-12-18T11:17:42;28.13;;;16.80;;
15246;SDS011;7726;48.820;9.248;2022-12-18T11:20:19;32.23;;;18.57;;
15246;SDS011;7726;48.820;9.248;2022-12-18T11:22:54;33.23;;;19.13;;
15246;SDS011;7726;48.820;9.248;2022-12-18T11:25:22;30.63;;;17.47;;
15246;SDS011;7726;48.820;9.248;2022-12-18T11:27:49;29.47;;;17.77;;
15246;SDS011;7726;48.820;9.248;2022-12-18T11:30:23;35.77;;;18.43;;
15246;SDS011;7726;48.820;9.248;2022-12-18T11:32:51;32.90;;;19.17;;
15246;SDS011;7726;48.820;9.248;2022-12-18T11:35:21;31.90;;;18.57;;
15246;SDS011;7726;48.820;9.248;2022-12-18T11:37:52;34.90;;;19.37;;
15246;SDS011;7726;48.820;9.248;2022-12-18T11:40:25;36.93;;;19.50;;
15246;SDS011;7726;48.820;9.248;2022-12-18T11:42:54;33.27;;;19.07;;
15246;SDS011;7726;48.820;9.248;2022-12-18T11:45:28;33.33;;;18.77;;
15246;SDS011;7726;48.820;9.248;2022-12-18T11:47:57;36.23;;;18.90;;
15246;SDS011;7726;48.820;9.248;2022-12-18T11:50:28;31.07;;;18.47;;
15246;SDS011;7726;48.820;9.248;2022-12-18T11:52:55;32.33;;;18.03;;
15246;SDS011;7726;48.820;9.248;2022-12-18T11:55:27;35.00;;;19.07;;
15246;SDS011;7726;48.820;9.248;2022-12-18T11:57:57;37.03;;;19.77;;
15246;SDS011;7726;48.820;9.248;2022-12-18T12:00:27;31.80;;;19.17;;
15246;SDS011;7726;48.820;9.248;2022-12-18T12:03:05;32.97;;;19.30;;
15246;SDS011;7726;48.820;9.248;2022-12-18T12:05:45;38.33;;;21.00;;
15246;SDS011;7726;48.820;9.248;2022-12-18T12:08:16;35.20;;;19.73;;
15246;SDS011;7726;48.820;9.248;2022-12-18T12:10:51;33.90;;;19.70;;
15246;SDS011;7726;48.820;9.248;2022-12-18T12:13:28;32.20;;;18.13;;
15246;SDS011;7726;48.820;9.248;2022-12-18T12:16:03;39.10;;;20.40;;
15246;SDS011;7726;48.820;9.248;2022-12-18T12:18:33;36.07;;;19.43;;
15246;SDS011;7726;48.820;9.248;2022-12-18T12:21:05;33.23;;;19.73;;
15246;SDS011;7726;48.820;9.248;2022-12-18T12:23:36;33.90;;;20.93;;
15246;SDS011;7726;48.820;9.248;2022-12-18T12:26:06;33.20;;;19.27;;
15246;SDS011;7726;48.820;9.248;2022-12-18T12:28:38;31.57;;;19.87;;
15246;SDS011;7726;48.820;9.248;2022-12-18T12:31:10;35.00;;;19.60;;
15246;SDS011;7726;48.820;9.248;2022-12-18T12:33:40;31.83;;;19.80;;
15246;SDS011;7726;48.820;9.248;2022-12-18T12:36:10;34.97;;;20.50;;
15246;SDS011;7726;48.820;9.248;2022-12-18T12:38:40;37.57;;;21.53;;
15246;SDS011;7726;48.820;9.248;2022-12-18T12:41:12;37.40;;;20.63;;
15246;SDS011;7726;48.820;9.248;2022-12-18T12:43:54;36.13;;;20.77;;
15246;SDS011;7726;48.820;9.248;2022-12-18T12:46:24;38.17;;;22.10;;
15246;SDS011;7726;48.820;9.248;2022-12-18T12:48:53;38.33;;;19.93;;
15246;SDS011;7726;48.820;9.248;2022-12-18T12:51:21;36.83;;;20.40;;
15246;SDS011;7726;48.820;9.248;2022-12-18T12:53:49;32.50;;;20.17;;
15246;SDS011;7726;48.820;9.248;2022-12-18T12:56:17;35.87;;;21.00;;
15246;SDS011;7726;48.820;9.248;2022-12-18T12:58:52;39.93;;;21.47;;
15246;SDS011;7726;48.820;9.248;2022-12-18T13:01:28;42.23;;;21.20;;
15246;SDS011;7726;48.820;9.248;2022-12-18T13:03:57;35.33;;;20.93;;
15246;SDS011;7726;48.820;9.248;2022-12-18T13:06:32;36.60;;;19.63;;
15246;SDS011;7726;48.820;9.248;2022-12-18T13:09:00;39.07;;;20.70;;
15246;SDS011;7726;48.820;9.248;2022-12-18T13:11:30;34.33;;;20.13;;
15246;SDS011;7726;48.820;9.248;2022-12-18T13:14:23;37.33;;;19.60;;
15246;SDS011;7726;48.820;9.248;2022-12-18T13:16:51;35.50;;;21.73;;
15246;SDS011;7726;48.820;9.248;2022-12-18T13:19:21;35.83;;;19.60;;
15246;SDS011;7726;48.820;9.248;2022-12-18T13:21:52;34.53;;;20.57;;
15246;SDS011;7726;48.820;9.248;2022-12-18T13:24:23;33.20;;;19.50;;
15246;SDS011;7726;48.820;9.248;2022-12-18T13:26:51;35.83;;;20.43;;
15246;SDS011;7726;48.820;9.248;2022-12-18T13:32:01;28.97;;;18.80;;
15246;SDS011;7726;48.820;9.248;2022-12-18T13:34:29;36.23;;;21.00;;
15246;SDS011;7726;48.820;9.248;2022-12-18T13:36:57;38.87;;;20.67;;
15246;SDS011;7726;48.820;9.248;2022-12-18T13:39:44;31.93;;;19.07;;
15246;SDS011;7726;48.820;9.248;2022-12-18T13:48:02;31.53;;;19.40;;
15246;SDS011;7726;48.820;9.248;2022-12-18T13:50:29;37.27;;;19.60;;
15246;SDS011;7726;48.820;9.248;2022-12-18T13:52:57;34.40;;;19.97;;
15246;SDS011;7726;48.820;9.248;2022-12-18T13:55:24;34.87;;;19.07;;
15246;SDS011;7726;48.820;9.248;2022-12-18T13:57:52;34.07;;;19.57;;
15246;SDS011;7726;48.820;9.248;2022-12-18T14:00:29;32.47;;;19.00;;
15246;SDS011;7726;48.820;9.248;2022-12-18T14:02:57;33.63;;;19.70;;
15246;SDS011;7726;48.820;9.248;2022-12-18T14:05:27;34.73;;;20.17;;
15246;SDS011;7726;48.820;9.248;2022-12-18T14:07:54;40.37;;;20.77;;
15246;SDS011;7726;48.820;9.248;2022-12-18T14:10:25;36.37;;;20.30;;
15246;SDS011;7726;48.820;9.248;2022-12-18T14:12:52;33.40;;;19.40;;
15246;SDS011;7726;48.820;9.248;2022-12-18T14:15:25;37.33;;;20.93;;
15246;SDS011;7726;48.820;9.248;2022-12-18T14:17:56;36.60;;;20.87;;
15246;SDS011;7726;48.820;9.248;2022-12-18T14:20:26;34.93;;;21.17;;
15246;SDS011;7726;48.820;9.248;2022-12-18T14:22:53;39.43;;;20.90;;
15246;SDS011;7726;48.820;9.248;2022-12-18T14:25:22;36.77;;;19.33;;
15246;SDS011;7726;48.820;9.248;2022-12-18T14:27:50;35.47;;;20.13;;
15246;SDS011;7726;48.820;9.248;2022-12-18T14:30:24;33.77;;;20.53;;
15246;SDS011;7726;48.820;9.248;2022-12-18T14:33:01;38.50;;;21.50;;
15246;SDS011;7726;48.820;9.248;2022-12-18T14:35:29;39.63;;;24.47;;
15246;SDS011;7726;48.820;9.248;2022-12-18T14:38:09;38.83;;;23.47;;
15246;SDS011;7726;48.820;9.248;2022-12-18T14:40:36;36.60;;;22.40;;
15246;SDS011;7726;48.820;9.248;2022-12-18T14:43:03;37.27;;;21.20;;
15246;SDS011;7726;48.820;9.248;2022-12-18T14:45:40;35.23;;;20.20;;
15246;SDS011;7726;48.820;9.248;2022-12-18T14:48:08;33.73;;;20.77;;
15246;SDS011;7726;48.820;9.248;2022-12-18T14:50:37;37.37;;;22.17;;
15246;SDS011;7726;48.820;9.248;2022-12-18T14:53:17;45.47;;;23.50;;
15246;SDS011;7726;48.820;9.248;2022-12-18T14:55:44;35.37;;;20.57;;